Time;durP1;ratioP1;P1;durP2;ratioP2;P2;SDS_P1;SDS_P2;PMS_P1;PMS_P2;Temp;Humidity;BMP_temperature;BMP_pressure;BME280_temperature;BME280_humidity;BME280_pressure;Samples;Min_cycle;Max_cycle;Signal;HPM_P1;HPM_P2
2021/11/21 00:01:11;;;;;;;21.60;13.33;;;3.80;99.90;;;;;;4126621;28;20699;-60
2021/11/21 00:03:13;;;;;;;23.33;13.20;;;3.70;99.90;;;;;;4126717;28;20334;-60
2021/11/21 00:05:14;;;;;;;21.07;12.57;;;3.80;99.90;;;;;;4126221;28;20272;-61
2021/11/21 00:07:16;;;;;;;20.43;11.70;;;3.70;99.90;;;;;;4125861;28;20264;-62
2021/11/21 00:09:17;;;;;;;21.53;12.57;;;3.70;99.90;;;;;;4126701;28;20315;-65
2021/11/21 00:11:18;;;;;;;20.60;12.13;;;3.70;99.90;;;;;;4124076;28;20276;-68
2021/11/21 00:13:20;;;;;;;27.43;13.20;;;3.70;99.90;;;;;;4119155;28;20273;-62
2021/11/21 00:15:21;;;;;;;18.77;11.03;;;3.70;99.90;;;;;;4109492;28;20269;-61
2021/11/21 00:17:22;;;;;;;21.77;12.30;;;3.70;99.90;;;;;;4111149;28;20315;-60
2021/11/21 00:19:23;;;;;;;22.80;11.67;;;3.60;99.90;;;;;;4109789;28;20277;-60
2021/11/21 00:21:25;;;;;;;19.73;11.83;;;3.60;99.90;;;;;;4116060;28;20350;-69
2021/11/21 00:23:26;;;;;;;20.27;11.53;;;3.60;99.90;;;;;;4125497;28;20335;-70
2021/11/21 00:25:28;;;;;;;22.27;12.07;;;3.60;99.90;;;;;;4126708;28;20803;-60
2021/11/21 00:27:29;;;;;;;21.77;12.37;;;3.50;99.90;;;;;;4126066;28;20260;-58
2021/11/21 00:29:30;;;;;;;20.83;11.50;;;3.50;99.90;;;;;;4126563;28;20894;-60
2021/11/21 00:31:31;;;;;;;19.77;10.67;;;3.50;99.90;;;;;;4125553;28;20276;-59
2021/11/21 00:33:33;;;;;;;19.93;11.30;;;3.40;99.90;;;;;;4125973;28;20280;-60
2021/11/21 00:35:34;;;;;;;19.50;11.13;;;3.40;99.90;;;;;;4126113;28;21055;-59
2021/11/21 00:37:35;;;;;;;19.03;9.93;;;3.40;99.90;;;;;;4125108;28;20272;-66
2021/11/21 00:39:36;;;;;;;17.40;10.23;;;3.40;99.90;;;;;;4127078;28;20810;-64
2021/11/21 00:41:38;;;;;;;15.37;10.10;;;3.40;99.90;;;;;;4125341;28;20292;-62
2021/11/21 00:43:40;;;;;;;19.77;10.13;;;3.30;99.90;;;;;;4126517;28;20284;-58
2021/11/21 00:45:42;;;;;;;16.87;10.00;;;3.40;99.90;;;;;;4125475;28;20651;-68
2021/11/21 00:47:43;;;;;;;20.13;9.83;;;3.40;99.90;;;;;;4126618;28;20322;-66
2021/11/21 00:49:44;;;;;;;20.47;10.47;;;3.30;99.90;;;;;;4123940;28;20762;-60
2021/11/21 00:51:46;;;;;;;18.07;9.63;;;3.40;99.90;;;;;;4125721;28;20276;-54
2021/11/21 00:53:52;;;;;;;18.00;9.47;;;3.40;99.90;;;;;;4124969;28;20276;-59
2021/11/21 00:56:01;;;;;;;17.10;9.27;;;3.40;99.90;;;;;;4125716;28;20291;-61
2021/11/21 00:58:05;;;;;;;16.30;9.27;;;3.50;99.90;;;;;;4125179;28;20244;-58
2021/11/21 01:00:10;;;;;;;14.70;9.43;;;3.50;99.90;;;;;;4125928;28;20267;-64
2021/11/21 01:02:12;;;;;;;14.97;8.37;;;3.50;99.90;;;;;;4124934;28;20327;-59
2021/11/21 01:04:13;;;;;;;15.93;8.60;;;3.50;99.90;;;;;;4125952;28;20252;-60
2021/11/21 01:06:15;;;;;;;12.13;7.67;;;3.50;99.90;;;;;;4125451;28;21113;-61
2021/11/21 01:08:16;;;;;;;18.97;9.00;;;3.60;99.90;;;;;;4125759;28;20753;-63
2021/11/21 01:10:19;;;;;;;13.87;8.47;;;3.60;99.90;;;;;;4125865;28;20268;-59
2021/11/21 01:12:21;;;;;;;12.77;8.17;;;3.60;99.90;;;;;;4124890;28;20272;-58
2021/11/21 01:14:22;;;;;;;17.37;9.40;;;3.60;99.90;;;;;;4125812;28;20272;-60
2021/11/21 01:16:23;;;;;;;14.83;9.03;;;3.50;99.90;;;;;;4124907;28;21207;-65
2021/11/21 01:18:25;;;;;;;18.13;9.60;;;3.50;99.90;;;;;;4125759;28;20342;-63
2021/11/21 01:20:29;;;;;;;13.47;8.80;;;3.50;99.90;;;;;;4124151;28;20315;-59
2021/11/21 01:22:32;;;;;;;14.97;8.50;;;3.50;99.90;;;;;;4125087;28;20362;-66
2021/11/21 01:24:33;;;;;;;13.83;8.40;;;3.50;99.90;;;;;;4124833;28;20288;-64
2021/11/21 01:26:35;;;;;;;14.60;8.37;;;3.60;99.90;;;;;;4125680;28;20744;-62
2021/11/21 01:28:36;;;;;;;12.07;7.77;;;3.60;99.90;;;;;;4124220;28;20429;-59
2021/11/21 01:30:37;;;;;;;14.93;7.70;;;3.60;99.90;;;;;;4125311;28;20284;-58
2021/11/21 01:32:39;;;;;;;13.97;8.30;;;3.50;99.90;;;;;;4124422;28;20334;-63
2021/11/21 01:34:40;;;;;;;13.13;7.87;;;3.50;99.90;;;;;;4123854;28;20334;-63
2021/11/21 01:36:41;;;;;;;14.07;7.80;;;3.50;99.90;;;;;;4124081;28;20299;-56
2021/11/21 01:38:44;;;;;;;13.80;9.07;;;3.50;99.90;;;;;;4125272;28;20260;-61
2021/11/21 01:40:46;;;;;;;13.60;7.97;;;3.50;99.90;;;;;;4125343;28;20323;-60
2021/11/21 01:42:49;;;;;;;13.93;8.00;;;3.40;99.90;;;;;;4123446;28;20300;-60
2021/11/21 01:44:51;;;;;;;16.03;8.07;;;3.40;99.90;;;;;;4124810;28;20272;-63
2021/11/21 01:46:52;;;;;;;14.20;9.00;;;3.30;99.90;;;;;;4124701;28;20268;-64
2021/11/21 01:48:53;;;;;;;13.83;7.70;;;3.30;99.90;;;;;;4125520;28;20338;-57
2021/11/21 01:50:56;;;;;;;13.73;8.23;;;3.30;99.90;;;;;;4124061;28;20830;-61
2021/11/21 01:52:57;;;;;;;13.10;7.87;;;3.30;99.90;;;;;;4125007;28;20272;-62
2021/11/21 01:54:59;;;;;;;23.00;12.67;;;3.20;99.90;;;;;;4108160;28;20265;-63
2021/11/21 01:57:01;;;;;;;28.70;15.53;;;3.00;99.90;;;;;;4115862;28;20830;-61
2021/11/21 01:59:02;;;;;;;33.07;16.50;;;2.90;99.90;;;;;;4123923;28;20307;-56
2021/11/21 02:01:03;;;;;;;31.50;14.97;;;2.80;99.90;;;;;;4125481;28;20280;-62
2021/11/21 02:03:06;;;;;;;27.67;15.40;;;2.70;99.90;;;;;;4123812;28;20358;-57
2021/11/21 02:05:08;;;;;;;26.53;15.03;;;2.60;99.90;;;;;;4124975;28;20827;-64
2021/11/21 02:07:09;;;;;;;26.43;15.27;;;2.60;99.90;;;;;;4124280;28;20272;-59
2021/11/21 02:09:10;;;;;;;27.57;14.80;;;2.60;99.90;;;;;;4125123;28;20660;-59
2021/11/21 02:11:12;;;;;;;25.70;13.37;;;2.50;99.90;;;;;;4124718;28;20601;-59
2021/11/21 02:13:13;;;;;;;21.10;12.53;;;2.50;99.90;;;;;;4124017;28;20284;-63
2021/11/21 02:15:17;;;;;;;23.23;13.37;;;2.40;99.90;;;;;;4124330;28;20264;-63
2021/11/21 02:17:23;;;;;;;22.73;12.43;;;2.40;99.90;;;;;;4124027;28;20807;-64
2021/11/21 02:19:24;;;;;;;26.77;13.07;;;2.40;99.90;;;;;;4124765;28;20310;-64
2021/11/21 02:21:26;;;;;;;23.73;12.80;;;2.40;99.90;;;;;;4123531;28;20280;-57
2021/11/21 02:23:27;;;;;;;25.23;13.20;;;2.40;99.90;;;;;;4123959;28;20292;-59
2021/11/21 02:25:28;;;;;;;27.20;14.00;;;2.30;99.90;;;;;;4124420;28;20268;-64
2021/11/21 02:27:31;;;;;;;29.83;15.70;;;2.30;99.90;;;;;;4123739;28;20378;-63
2021/11/21 02:29:32;;;;;;;25.53;14.33;;;2.20;99.90;;;;;;4123893;28;20288;-62
2021/11/21 02:31:33;;;;;;;27.07;14.40;;;2.20;99.90;;;;;;4124878;28;20359;-61
2021/11/21 02:33:34;;;;;;;28.80;15.27;;;2.20;99.90;;;;;;4123766;28;20318;-60
2021/11/21 02:35:39;;;;;;;26.30;15.10;;;2.20;99.90;;;;;;4124813;28;20327;-60
2021/11/21 02:37:40;;;;;;;28.43;15.60;;;2.20;99.90;;;;;;4123907;28;20264;-65
2021/11/21 02:39:42;;;;;;;25.97;14.50;;;2.20;99.90;;;;;;4125141;28;20284;-68
2021/11/21 02:41:43;;;;;;;27.67;14.43;;;2.10;99.90;;;;;;4124183;28;20346;-58
2021/11/21 02:43:45;;;;;;;26.57;14.60;;;2.10;99.90;;;;;;4123902;28;20291;-68
2021/11/21 02:45:48;;;;;;;25.60;13.23;;;2.00;99.90;;;;;;4124025;28;20260;-62
2021/11/21 02:47:49;;;;;;;27.50;14.10;;;1.90;99.90;;;;;;4124420;28;20272;-70
2021/11/21 02:49:52;;;;;;;26.93;13.50;;;1.90;99.90;;;;;;4124357;28;20909;-66
2021/11/21 02:51:54;;;;;;;26.07;13.87;;;1.90;99.90;;;;;;4124012;28;20280;-67
2021/11/21 02:53:55;;;;;;;25.60;13.43;;;1.90;99.90;;;;;;4124402;28;20271;-62
2021/11/21 02:55:59;;;;;;;23.63;12.73;;;1.80;99.90;;;;;;4125366;28;20276;-69
2021/11/21 02:58:02;;;;;;;24.83;13.97;;;1.80;99.90;;;;;;4127654;28;20287;-56
2021/11/21 03:00:07;;;;;;;26.33;14.00;;;1.80;99.90;;;;;;4125947;28;20695;-60
2021/11/21 03:02:08;;;;;;;19.33;11.17;;;1.80;99.90;;;;;;4127365;28;20304;-60
2021/11/21 03:04:10;;;;;;;20.10;10.40;;;1.80;99.90;;;;;;4126977;28;21316;-62
2021/11/21 03:06:11;;;;;;;17.70;9.53;;;1.80;99.90;;;;;;4127668;28;20275;-58
2021/11/21 03:08:13;;;;;;;18.10;10.00;;;1.80;99.90;;;;;;4126646;28;20307;-58
2021/11/21 03:10:18;;;;;;;18.27;10.00;;;1.80;99.90;;;;;;4128332;28;20334;-61
2021/11/21 03:12:22;;;;;;;17.73;10.30;;;1.70;99.90;;;;;;4126742;28;20697;-58
2021/11/21 03:14:23;;;;;;;18.23;9.40;;;1.70;99.90;;;;;;4127491;28;20264;-60
2021/11/21 03:16:25;;;;;;;17.43;9.37;;;1.70;99.90;;;;;;4126273;28;20272;-64
2021/11/21 03:18:26;;;;;;;17.47;9.07;;;1.70;99.90;;;;;;4127555;28;20762;-61
2021/11/21 03:20:34;;;;;;;14.00;8.53;;;1.70;99.90;;;;;;4126335;28;20280;-68
2021/11/21 03:22:36;;;;;;;17.83;9.20;;;1.60;99.90;;;;;;4127044;28;20696;-60
2021/11/21 03:24:37;;;;;;;14.50;8.70;;;1.60;99.90;;;;;;4126166;28;20287;-62
2021/11/21 03:26:38;;;;;;;14.43;8.73;;;1.60;99.90;;;;;;4127136;28;20996;-60
2021/11/21 03:28:39;;;;;;;12.70;7.43;;;1.60;99.90;;;;;;4126603;28;20656;-61
2021/11/21 03:30:42;;;;;;;15.73;8.67;;;1.50;99.90;;;;;;4125513;28;20283;-65
2021/11/21 03:32:44;;;;;;;14.27;8.57;;;1.50;99.90;;;;;;4127788;28;20748;-69
2021/11/21 03:34:46;;;;;;;14.33;8.10;;;1.60;99.90;;;;;;4126262;28;20268;-57
2021/11/21 03:36:47;;;;;;;18.63;8.33;;;1.60;99.90;;;;;;4127955;28;20644;-64
2021/11/21 03:38:49;;;;;;;15.40;8.63;;;1.60;99.90;;;;;;4125731;28;20339;-67
2021/11/21 03:40:50;;;;;;;15.33;8.13;;;1.50;99.90;;;;;;4127974;28;20335;-60
2021/11/21 03:42:51;;;;;;;20.03;8.03;;;1.50;99.90;;;;;;4126421;28;20366;-59
2021/11/21 03:44:54;;;;;;;14.73;8.43;;;1.50;99.90;;;;;;4127449;28;20331;-58
2021/11/21 03:46:55;;;;;;;17.67;9.30;;;1.40;99.90;;;;;;4125987;28;20709;-63
2021/11/21 03:48:56;;;;;;;15.83;9.80;;;1.40;99.90;;;;;;4127612;28;20338;-61
2021/11/21 03:50:57;;;;;;;15.27;8.20;;;1.40;99.90;;;;;;4126265;28;20291;-59
2021/11/21 03:52:58;;;;;;;17.70;9.23;;;1.40;99.90;;;;;;4127020;28;20318;-59
2021/11/21 03:55:00;;;;;;;16.77;9.03;;;1.30;99.90;;;;;;4126247;28;20260;-59
2021/11/21 03:57:01;;;;;;;17.43;8.30;;;1.30;99.90;;;;;;4125866;28;20342;-63
2021/11/21 03:59:02;;;;;;;21.83;9.00;;;1.30;99.90;;;;;;4124417;28;20330;-60
2021/11/21 04:01:04;;;;;;;14.80;9.07;;;1.20;99.90;;;;;;4125950;28;20256;-63
2021/11/21 04:03:05;;;;;;;14.37;8.20;;;1.20;99.90;;;;;;4127065;28;20303;-58
2021/11/21 04:05:07;;;;;;;17.53;8.90;;;1.20;99.90;;;;;;4126034;28;20284;-59
2021/11/21 04:07:08;;;;;;;14.60;8.77;;;1.20;99.90;;;;;;4126313;28;20280;-60
2021/11/21 04:09:09;;;;;;;16.60;8.67;;;1.20;99.90;;;;;;4125404;28;20358;-61
2021/11/21 04:11:11;;;;;;;15.33;9.10;;;1.20;99.90;;;;;;4127665;28;20322;-60
2021/11/21 04:13:12;;;;;;;16.87;8.57;;;1.20;99.90;;;;;;4125222;28;20288;-60
2021/11/21 04:15:15;;;;;;;17.67;8.63;;;1.20;99.90;;;;;;4126879;28;20334;-56
2021/11/21 04:17:16;;;;;;;17.73;9.77;;;1.20;99.90;;;;;;4124083;28;20342;-60
2021/11/21 04:19:17;;;;;;;17.70;10.80;;;1.20;99.90;;;;;;4126651;28;20280;-57
2021/11/21 04:21:19;;;;;;;19.73;11.30;;;1.10;99.90;;;;;;4125145;28;20334;-64
2021/11/21 04:23:20;;;;;;;22.37;12.43;;;1.10;99.90;;;;;;4126022;28;20307;-60
2021/11/21 04:25:22;;;;;;;23.57;11.83;;;1.10;99.90;;;;;;4125706;28;20760;-68
2021/11/21 04:27:25;;;;;;;33.97;16.37;;;1.10;99.90;;;;;;4126288;28;20767;-62
2021/11/21 04:29:27;;;;;;;32.63;17.17;;;1.10;99.90;;;;;;4126012;28;20834;-56
2021/11/21 04:31:28;;;;;;;34.60;18.83;;;1.00;99.90;;;;;;4124989;28;20699;-60
2021/11/21 04:33:29;;;;;;;35.37;19.63;;;1.10;99.90;;;;;;4126640;28;20283;-57
2021/11/21 04:35:30;;;;;;;32.40;19.47;;;1.00;99.90;;;;;;4125840;28;20310;-58
2021/11/21 04:37:32;;;;;;;34.23;20.07;;;1.00;99.90;;;;;;4126855;28;20260;-58
2021/11/21 04:39:33;;;;;;;35.23;20.03;;;1.00;99.90;;;;;;4124790;28;20342;-68
2021/11/21 04:41:35;;;;;;;35.33;20.07;;;1.00;99.90;;;;;;4126192;28;20276;-58
2021/11/21 04:43:36;;;;;;;33.50;18.43;;;1.00;99.90;;;;;;4124780;28;20886;-59
2021/11/21 04:45:38;;;;;;;33.90;18.93;;;1.00;99.90;;;;;;4125605;28;20327;-58
2021/11/21 04:47:40;;;;;;;60.03;36.20;;;0.90;99.90;;;;;;4124227;28;20683;-57
2021/11/21 04:49:41;;;;;;;51.80;29.90;;;0.90;99.90;;;;;;4126698;28;20256;-62
2021/11/21 04:51:42;;;;;;;50.83;30.77;;;0.80;99.90;;;;;;4125112;28;20295;-60
2021/11/21 04:53:43;;;;;;;46.80;29.40;;;0.80;99.90;;;;;;4124289;28;20335;-60
2021/11/21 04:55:45;;;;;;;37.80;24.70;;;0.80;99.90;;;;;;4124428;28;20287;-60
2021/11/21 04:57:46;;;;;;;35.27;22.27;;;0.80;99.90;;;;;;4125563;28;20393;-61
2021/11/21 04:59:47;;;;;;;32.73;18.83;;;0.80;99.90;;;;;;4125517;28;20276;-60
2021/11/21 05:01:49;;;;;;;34.43;19.03;;;0.80;99.90;;;;;;4124983;28;20613;-60
2021/11/21 05:03:50;;;;;;;28.23;16.10;;;0.80;99.90;;;;;;4123958;28;20300;-59
2021/11/21 05:05:51;;;;;;;31.83;16.63;;;0.80;99.90;;;;;;4124769;28;20344;-58
2021/11/21 05:07:53;;;;;;;26.10;15.17;;;0.80;99.90;;;;;;4126315;28;20259;-58
2021/11/21 05:09:54;;;;;;;27.90;15.53;;;0.80;99.90;;;;;;4124738;28;20299;-59
2021/11/21 05:11:56;;;;;;;29.10;14.97;;;0.80;99.90;;;;;;4125652;28;20327;-59
2021/11/21 05:13:57;;;;;;;25.27;14.23;;;0.80;99.90;;;;;;4124487;28;20268;-65
2021/11/21 05:15:58;;;;;;;26.17;14.63;;;0.70;99.90;;;;;;4126114;28;20346;-61
2021/11/21 05:18:00;;;;;;;27.80;14.60;;;0.80;99.90;;;;;;4123948;28;20264;-64
2021/11/21 05:20:02;;;;;;;25.53;13.80;;;0.80;99.90;;;;;;4126004;28;20276;-64
2021/11/21 05:22:03;;;;;;;28.73;14.77;;;0.70;99.90;;;;;;4124103;28;20268;-58
2021/11/21 05:24:05;;;;;;;29.27;14.93;;;0.70;99.90;;;;;;4125583;28;20287;-64
2021/11/21 05:26:06;;;;;;;29.53;15.27;;;0.70;99.90;;;;;;4123623;28;20287;-60
2021/11/21 05:28:07;;;;;;;25.43;13.33;;;0.70;99.90;;;;;;4125159;28;20280;-60
2021/11/21 05:30:09;;;;;;;26.00;14.27;;;0.70;99.90;;;;;;4125271;28;20260;-58
2021/11/21 05:32:10;;;;;;;22.90;13.47;;;0.70;99.90;;;;;;4124831;28;20268;-61
2021/11/21 05:34:11;;;;;;;26.60;13.50;;;0.70;99.90;;;;;;4124488;28;20284;-68
2021/11/21 05:36:13;;;;;;;29.33;15.53;;;0.70;99.90;;;;;;4124192;28;20318;-58
2021/11/21 05:38:14;;;;;;;30.63;15.73;;;0.50;99.90;;;;;;4122765;28;20342;-59
2021/11/21 05:40:16;;;;;;;30.00;16.03;;;0.50;99.90;;;;;;4124860;28;20256;-65
2021/11/21 05:42:17;;;;;;;34.73;17.53;;;0.40;99.90;;;;;;4125468;28;20382;-57
2021/11/21 05:44:19;;;;;;;35.43;16.90;;;0.40;99.90;;;;;;4124627;28;20331;-59
2021/11/21 05:46:21;;;;;;;34.27;17.53;;;0.40;99.90;;;;;;4125874;28;20268;-57
2021/11/21 05:48:22;;;;;;;40.37;21.83;;;0.30;99.90;;;;;;4123684;28;20905;-60
2021/11/21 05:50:23;;;;;;;36.20;18.43;;;0.30;99.90;;;;;;4125561;28;20349;-66
2021/11/21 05:52:25;;;;;;;31.17;17.03;;;0.40;99.90;;;;;;4124046;28;20261;-59
2021/11/21 05:54:26;;;;;;;38.50;18.43;;;0.40;99.90;;;;;;4125084;28;20292;-58
2021/11/21 05:56:27;;;;;;;43.87;23.13;;;0.40;99.90;;;;;;4123999;28;20267;-60
2021/11/21 05:58:28;;;;;;;38.13;19.33;;;0.50;99.90;;;;;;4123409;28;20331;-60
2021/11/21 06:00:30;;;;;;;35.83;19.50;;;0.50;99.90;;;;;;4123992;28;20350;-58
2021/11/21 06:02:31;;;;;;;29.90;16.63;;;0.50;99.90;;;;;;4124215;28;20801;-59
2021/11/21 06:04:32;;;;;;;30.93;16.23;;;0.70;99.90;;;;;;4124364;28;20767;-57
2021/11/21 06:06:34;;;;;;;31.03;16.30;;;0.70;99.90;;;;;;4123791;28;20770;-59
2021/11/21 06:08:35;;;;;;;33.57;16.80;;;0.80;99.90;;;;;;4124762;28;20972;-61
2021/11/21 06:10:36;;;;;;;29.47;16.40;;;0.90;99.90;;;;;;4124336;28;20664;-64
2021/11/21 06:12:38;;;;;;;30.23;17.20;;;1.00;99.90;;;;;;4124945;28;20284;-62
2021/11/21 06:14:40;;;;;;;29.10;16.47;;;1.10;99.90;;;;;;4123709;28;20613;-63
2021/11/21 06:16:41;;;;;;;31.73;16.33;;;1.20;99.90;;;;;;4125087;28;20319;-59
2021/11/21 06:18:42;;;;;;;31.33;16.13;;;1.30;99.90;;;;;;4123781;28;20284;-60
2021/11/21 06:20:44;;;;;;;30.93;15.10;;;1.40;99.90;;;;;;4124808;28;20264;-65
2021/11/21 06:22:45;;;;;;;32.23;15.97;;;1.60;99.90;;;;;;4122622;28;20378;-57
2021/11/21 06:24:46;;;;;;;27.07;15.03;;;1.80;99.90;;;;;;4122956;28;20300;-67
2021/11/21 06:26:48;;;;;;;30.47;14.60;;;2.00;99.90;;;;;;4119831;28;20390;-60
2021/11/21 06:28:50;;;;;;;26.73;14.17;;;2.40;99.90;;;;;;4134107;28;20327;-67
2021/11/21 06:30:52;;;;;;;25.53;14.80;;;2.50;99.90;;;;;;4131650;28;20260;-59
2021/11/21 06:32:53;;;;;;;28.13;15.43;;;2.60;99.90;;;;;;4124691;28;20378;-60
2021/11/21 06:34:54;;;;;;;26.57;14.43;;;2.90;99.90;;;;;;4124522;28;20268;-61
2021/11/21 06:36:55;;;;;;;22.63;13.20;;;3.20;99.90;;;;;;4123262;28;20859;-63
2021/11/21 06:38:56;;;;;;;23.23;13.20;;;3.60;99.90;;;;;;4123543;28;20739;-63
2021/11/21 06:40:58;;;;;;;25.17;14.33;;;3.90;99.90;;;;;;4123410;28;20326;-61
2021/11/21 06:42:59;;;;;;;27.93;14.73;;;4.20;99.90;;;;;;4123784;28;20758;-66
2021/11/21 06:45:01;;;;;;;35.33;19.63;;;4.60;99.90;;;;;;4123863;28;20995;-60
2021/11/21 06:47:02;;;;;;;29.63;17.47;;;4.90;99.90;;;;;;4124674;28;20042;-60
2021/11/21 06:49:03;;;;;;;21.70;14.37;;;5.20;99.90;;;;;;4123606;28;20501;-61
2021/11/21 06:51:04;;;;;;;20.63;12.67;;;5.30;99.90;;;;;;4124582;28;20085;-61
2021/11/21 06:53:06;;;;;;;20.67;13.03;;;5.40;99.90;;;;;;4122987;28;20117;-61
2021/11/21 06:55:10;;;;;;;21.77;13.37;;;5.40;99.90;;;;;;4124999;28;20046;-59
2021/11/21 06:57:11;;;;;;;23.10;15.37;;;5.50;99.90;;;;;;4123941;28;20035;-59
2021/11/21 06:59:12;;;;;;;19.67;13.07;;;5.50;99.90;;;;;;4124721;28;20457;-71
2021/11/21 07:01:14;;;;;;;20.50;12.93;;;5.50;99.90;;;;;;4122655;28;20034;-60
2021/11/21 07:03:15;;;;;;;23.90;13.10;;;5.40;99.90;;;;;;4123576;28;20869;-61
2021/11/21 07:05:16;;;;;;;22.10;12.60;;;5.50;99.90;;;;;;4122740;28;20038;-67
2021/11/21 07:07:17;;;;;;;17.03;12.40;;;5.50;99.90;;;;;;4123523;28;20163;-72
2021/11/21 07:09:19;;;;;;;26.93;15.60;;;5.80;99.90;;;;;;4122518;28;20070;-61
2021/11/21 07:11:21;;;;;;;28.30;15.50;;;5.90;99.90;;;;;;4123217;28;20038;-64
2021/11/21 07:13:22;;;;;;;34.67;19.20;;;5.90;99.90;;;;;;4124185;28;20438;-60
2021/11/21 07:15:23;;;;;;;32.63;17.10;;;5.60;99.90;;;;;;4122683;28;20042;-61
2021/11/21 07:17:24;;;;;;;28.80;18.40;;;5.60;99.90;;;;;;4124284;28;20438;-62
2021/11/21 07:19:26;;;;;;;33.33;18.00;;;5.30;99.90;;;;;;4123028;28;20061;-62
2021/11/21 07:21:27;;;;;;;32.00;19.93;;;5.20;99.90;;;;;;4120368;28;20038;-59
2021/11/21 07:23:28;;;;;;;26.33;16.87;;;5.40;99.90;;;;;;4122081;28;20054;-60
2021/11/21 07:25:29;;;;;;;28.30;17.60;;;5.80;99.90;;;;;;4123735;28;20042;-58
2021/11/21 07:27:30;;;;;;;39.03;17.73;;;6.00;99.90;;;;;;4122729;28;20502;-60
2021/11/21 07:29:31;;;;;;;27.73;18.07;;;6.40;99.90;;;;;;4124073;28;20097;-63
2021/11/21 07:31:34;;;;;;;30.30;18.63;;;6.80;99.90;;;;;;4123456;28;20030;-64
2021/11/21 07:33:35;;;;;;;41.63;20.40;;;7.00;99.90;;;;;;4124333;28;20034;-60
2021/11/21 07:35:36;;;;;;;34.97;18.23;;;7.10;99.90;;;;;;4123045;28;20667;-59
2021/11/21 07:37:37;;;;;;;37.60;17.07;;;7.40;99.90;;;;;;4122914;28;20034;-62
2021/11/21 07:39:38;;;;;;;28.57;17.40;;;7.60;99.90;;;;;;4123984;28;20030;-60
2021/11/21 07:41:39;;;;;;;38.53;15.80;;;7.50;99.90;;;;;;4125132;28;20077;-61
2021/11/21 07:43:41;;;;;;;30.10;15.33;;;7.20;99.90;;;;;;4126855;28;20146;-60
2021/11/21 07:45:42;;;;;;;23.23;15.63;;;6.80;99.90;;;;;;4126134;28;20100;-61
2021/11/21 07:47:45;;;;;;;26.20;16.47;;;6.40;99.90;;;;;;4126722;28;20531;-61
2021/11/21 07:49:46;;;;;;;30.53;16.30;;;6.20;99.90;;;;;;4124983;28;20046;-62
2021/11/21 07:51:47;;;;;;;24.17;15.70;;;6.40;99.90;;;;;;4126595;28;20046;-61
2021/11/21 07:53:49;;;;;;;29.13;15.73;;;6.20;99.90;;;;;;4125545;28;20027;-60
2021/11/21 07:55:50;;;;;;;26.97;15.63;;;5.80;99.90;;;;;;4127050;28;20035;-62
2021/11/21 07:57:51;;;;;;;22.60;15.10;;;5.70;99.90;;;;;;4125936;28;20069;-61
2021/11/21 07:59:53;;;;;;;24.30;14.07;;;5.80;99.90;;;;;;4126887;28;20679;-62
2021/11/21 08:01:54;;;;;;;26.17;14.80;;;6.00;99.90;;;;;;4125011;28;20702;-63
2021/11/21 08:03:55;;;;;;;26.53;15.07;;;6.00;99.90;;;;;;4126038;28;20038;-65
2021/11/21 08:05:56;;;;;;;23.40;14.63;;;5.90;99.90;;;;;;4126399;28;20030;-63
2021/11/21 08:07:57;;;;;;;24.07;14.90;;;5.90;99.90;;;;;;4125818;28;20087;-60
2021/11/21 08:09:59;;;;;;;25.57;14.37;;;5.90;99.90;;;;;;4125208;28;20088;-62
2021/11/21 08:12:00;;;;;;;24.87;15.83;;;5.90;99.90;;;;;;4126201;28;20038;-60
2021/11/21 08:14:02;;;;;;;28.37;15.20;;;5.90;99.90;;;;;;4126675;28;20046;-60
2021/11/21 08:16:03;;;;;;;21.63;14.47;;;6.30;99.90;;;;;;4126989;28;20038;-57
2021/11/21 08:18:04;;;;;;;24.97;15.40;;;6.90;99.90;;;;;;4112716;28;20485;-59
2021/11/21 08:20:06;;;;;;;24.83;14.40;;;7.40;99.90;;;;;;4109425;28;20062;-60
2021/11/21 08:22:07;;;;;;;27.87;14.83;;;7.60;99.90;;;;;;4110183;28;20035;-62
2021/11/21 08:24:08;;;;;;;22.70;14.37;;;7.60;99.90;;;;;;4108910;28;20059;-58
2021/11/21 08:26:09;;;;;;;28.40;16.20;;;7.70;99.90;;;;;;4112634;28;20038;-58
2021/11/21 08:28:11;;;;;;;26.07;15.10;;;7.80;99.90;;;;;;4123179;28;20046;-58
2021/11/21 08:30:13;;;;;;;26.17;15.37;;;7.90;99.90;;;;;;4126546;28;20047;-64
2021/11/21 08:32:14;;;;;;;23.40;14.70;;;7.90;99.90;;;;;;4125610;28;20085;-69
2021/11/21 08:34:16;;;;;;;20.60;12.83;;;7.90;99.90;;;;;;4125720;28;20851;-68
2021/11/21 08:36:18;;;;;;;24.17;14.47;;;7.80;99.90;;;;;;4125382;28;20667;-64
2021/11/21 08:38:19;;;;;;;22.73;13.00;;;7.50;99.90;;;;;;4125371;28;20086;-60
2021/11/21 08:40:21;;;;;;;24.23;14.23;;;7.20;99.90;;;;;;4125505;28;20820;-58
2021/11/21 08:42:22;;;;;;;24.47;14.47;;;7.40;99.90;;;;;;4125775;28;20050;-58
2021/11/21 08:44:24;;;;;;;23.23;14.57;;;7.40;99.90;;;;;;4125619;28;20073;-60
2021/11/21 08:46:26;;;;;;;22.77;15.10;;;7.60;99.90;;;;;;4125204;28;20042;-60
2021/11/21 08:48:28;;;;;;;23.50;14.60;;;7.90;99.90;;;;;;4125766;28;20502;-59
2021/11/21 08:50:29;;;;;;;23.30;14.00;;;8.00;99.90;;;;;;4124775;28;20050;-60
2021/11/21 08:52:30;;;;;;;23.17;14.43;;;7.90;99.90;;;;;;4125149;28;20298;-59
2021/11/21 08:54:32;;;;;;;22.13;14.13;;;7.70;99.90;;;;;;4124816;28;20506;-60
2021/11/21 08:56:34;;;;;;;28.40;14.67;;;7.60;99.90;;;;;;4125693;28;20038;-60
2021/11/21 08:58:35;;;;;;;22.10;14.50;;;7.50;99.90;;;;;;4125070;28;20073;-64
2021/11/21 09:00:36;;;;;;;23.03;15.00;;;7.40;99.90;;;;;;4126034;28;20486;-59
2021/11/21 09:02:38;;;;;;;23.63;13.63;;;7.30;99.90;;;;;;4124989;28;20147;-58
2021/11/21 09:04:40;;;;;;;23.20;13.33;;;7.20;99.90;;;;;;4125663;28;20057;-59
2021/11/21 09:06:44;;;;;;;21.80;13.87;;;7.20;99.90;;;;;;4123193;28;20537;-59
2021/11/21 09:08:45;;;;;;;24.67;14.23;;;7.20;99.90;;;;;;4124950;28;20046;-60
2021/11/21 09:10:46;;;;;;;23.83;14.13;;;7.10;99.90;;;;;;4124858;28;20080;-60
2021/11/21 09:12:48;;;;;;;28.10;14.60;;;7.00;99.90;;;;;;4125430;28;20462;-58
2021/11/21 09:14:52;;;;;;;20.90;13.73;;;7.10;99.90;;;;;;4124687;28;20105;-59
2021/11/21 09:16:54;;;;;;;22.57;14.37;;;7.10;99.90;;;;;;4124574;28;20050;-61
2021/11/21 09:18:55;;;;;;;26.30;15.57;;;7.00;99.90;;;;;;4125203;28;20035;-60
2021/11/21 09:20:57;;;;;;;24.20;14.70;;;7.10;99.90;;;;;;4124322;28;20487;-62
2021/11/21 09:22:58;;;;;;;22.73;13.67;;;7.30;99.90;;;;;;4125400;28;20042;-57
2021/11/21 09:25:00;;;;;;;26.07;14.80;;;7.60;99.90;;;;;;4124010;28;20494;-60
2021/11/21 09:27:01;;;;;;;24.03;14.63;;;7.70;99.90;;;;;;4124488;28;20589;-59
2021/11/21 09:29:03;;;;;;;21.30;13.40;;;7.80;99.90;;;;;;4123971;28;20034;-59
2021/11/21 09:31:04;;;;;;;18.13;11.03;;;7.90;99.90;;;;;;4125640;28;20073;-59
2021/11/21 09:33:06;;;;;;;21.37;11.23;;;7.90;99.90;;;;;;4124262;28;20073;-60
2021/11/21 09:35:09;;;;;;;17.27;11.33;;;7.80;99.90;;;;;;4124897;28;20100;-59
2021/11/21 09:37:10;;;;;;;19.87;11.30;;;7.70;99.90;;;;;;4123903;28;20077;-60
2021/11/21 09:39:12;;;;;;;22.73;12.43;;;7.80;99.90;;;;;;4124086;28;20089;-58
2021/11/21 09:41:13;;;;;;;22.13;12.87;;;7.90;99.90;;;;;;4123841;28;20458;-59
2021/11/21 09:43:14;;;;;;;19.30;11.60;;;7.80;99.90;;;;;;4124932;28;20022;-57
2021/11/21 09:45:17;;;;;;;21.10;12.87;;;7.60;99.90;;;;;;4123736;28;20485;-58
2021/11/21 09:47:18;;;;;;;19.43;11.97;;;7.50;99.90;;;;;;4124313;28;20546;-58
2021/11/21 09:49:20;;;;;;;16.83;10.47;;;7.40;99.90;;;;;;4124692;28;20026;-59
2021/11/21 09:51:22;;;;;;;18.67;11.10;;;7.30;99.90;;;;;;4124275;28;20502;-59
2021/11/21 09:53:23;;;;;;;16.43;9.83;;;7.20;99.90;;;;;;4125261;28;20042;-58
2021/11/21 09:55:24;;;;;;;16.87;9.93;;;7.10;99.90;;;;;;4122714;28;20065;-59
2021/11/21 09:57:28;;;;;;;17.37;10.47;;;7.10;99.90;;;;;;4124834;28;20105;-62
2021/11/21 09:59:50;;;;;;;16.30;10.07;;;7.00;99.90;;;;;;4123589;28;20026;-60
2021/11/21 10:01:51;;;;;;;15.87;10.53;;;6.90;99.90;;;;;;4125355;28;20072;-63
2021/11/21 10:03:53;;;;;;;15.00;9.03;;;6.90;99.90;;;;;;4123073;28;20101;-61
2021/11/21 10:05:56;;;;;;;16.27;9.53;;;7.00;99.90;;;;;;4124699;28;20046;-60
2021/11/21 10:08:09;;;;;;;15.70;9.40;;;6.90;99.90;;;;;;4122715;28;20046;-59
2021/11/21 10:10:13;;;;;;;20.13;10.90;;;6.90;99.90;;;;;;4124825;28;20528;-61
2021/11/21 10:12:14;;;;;;;16.30;10.33;;;6.90;99.90;;;;;;4124120;28;20027;-58
2021/11/21 10:14:18;;;;;;;20.53;10.83;;;7.00;99.90;;;;;;4124542;28;20034;-63
2021/11/21 10:16:36;;;;;;;15.80;9.93;;;7.00;99.90;;;;;;4122130;28;20096;-59
2021/11/21 10:18:47;;;;;;;15.23;10.27;;;7.10;99.90;;;;;;4124970;28;20034;-59
2021/11/21 10:20:49;;;;;;;21.90;10.87;;;7.10;99.90;;;;;;4122871;28;20081;-53
2021/11/21 10:23:06;;;;;;;19.80;10.70;;;7.10;99.90;;;;;;4123940;28;20093;-63
2021/11/21 10:25:08;;;;;;;16.47;10.40;;;7.20;99.90;;;;;;4123170;28;20112;-59
2021/11/21 10:27:19;;;;;;;15.60;10.20;;;7.20;99.90;;;;;;4123961;28;20047;-58